sensor_id;sensor_type;location;lat;lon;timestamp;pressure;altitude;pressure_sealevel;temperature;humidity
23261;BME280;11799;47.740;-3.390;2023-03-04T00:01:52;102611.47;;;4.96;74.31
23261;BME280;11799;47.740;-3.390;2023-03-04T00:04:18;102606.22;;;4.96;74.46
23261;BME280;11799;47.740;-3.390;2023-03-04T00:06:44;102608.03;;;4.94;74.56
23261;BME280;11799;47.740;-3.390;2023-03-04T00:09:09;102608.06;;;4.93;74.92
23261;BME280;11799;47.740;-3.390;2023-03-04T00:11:35;102609.84;;;4.91;74.94
23261;BME280;11799;47.740;-3.390;2023-03-04T00:14:01;102606.41;;;4.89;74.63
23261;BME280;11799;47.740;-3.390;2023-03-04T00:16:26;102608.19;;;4.88;75.11
23261;BME280;11799;47.740;-3.390;2023-03-04T00:18:53;102607.31;;;4.88;75.11
23261;BME280;11799;47.740;-3.390;2023-03-04T00:21:19;102605.56;;;4.88;75.12
23261;BME280;11799;47.740;-3.390;2023-03-04T00:23:45;102609.06;;;4.87;74.89
23261;BME280;11799;47.740;-3.390;2023-03-04T00:26:10;102603.97;;;4.83;75.27
23261;BME280;11799;47.740;-3.390;2023-03-04T00:28:38;102614.38;;;4.84;75.33
23261;BME280;11799;47.740;-3.390;2023-03-04T00:31:07;102614.44;;;4.83;75.24
23261;BME280;11799;47.740;-3.390;2023-03-04T00:33:33;102613.56;;;4.82;74.96
23261;BME280;11799;47.740;-3.390;2023-03-04T00:35:59;102614.53;;;4.78;75.54
23261;BME280;11799;47.740;-3.390;2023-03-04T00:38:25;102614.50;;;4.80;75.33
23261;BME280;11799;47.740;-3.390;2023-03-04T00:40:51;102612.78;;;4.79;75.25
23261;BME280;11799;47.740;-3.390;2023-03-04T00:43:17;102617.19;;;4.77;75.24
23261;BME280;11799;47.740;-3.390;2023-03-04T00:45:43;102608.47;;;4.76;75.16
23261;BME280;11799;47.740;-3.390;2023-03-04T00:48:08;102612.91;;;4.74;75.42
23261;BME280;11799;47.740;-3.390;2023-03-04T00:50:34;102610.34;;;4.71;75.24
23261;BME280;11799;47.740;-3.390;2023-03-04T00:52:59;102613.88;;;4.70;75.32
23261;BME280;11799;47.740;-3.390;2023-03-04T00:55:26;102614.78;;;4.69;75.69
23261;BME280;11799;47.740;-3.390;2023-03-04T00:57:51;102613.94;;;4.67;75.53
23261;BME280;11799;47.740;-3.390;2023-03-04T01:00:17;102613.09;;;4.67;75.42
23261;BME280;11799;47.740;-3.390;2023-03-04T01:02:43;102604.41;;;4.64;75.44
23261;BME280;11799;47.740;-3.390;2023-03-04T01:05:09;102601.03;;;4.61;75.69
23261;BME280;11799;47.740;-3.390;2023-03-04T01:07:34;102614.06;;;4.62;75.69
23261;BME280;11799;47.740;-3.390;2023-03-04T01:10:00;102615.03;;;4.60;75.92
23261;BME280;11799;47.740;-3.390;2023-03-04T01:12:25;102604.63;;;4.57;75.82
23261;BME280;11799;47.740;-3.390;2023-03-04T01:14:52;102611.59;;;4.58;76.03
23261;BME280;11799;47.740;-3.390;2023-03-04T01:17:18;102605.44;;;4.59;76.22
23261;BME280;11799;47.740;-3.390;2023-03-04T01:19:44;102610.78;;;4.54;75.86
23261;BME280;11799;47.740;-3.390;2023-03-04T01:22:10;102617.81;;;4.52;76.13
23261;BME280;11799;47.740;-3.390;2023-03-04T01:24:36;102614.31;;;4.53;76.22
23261;BME280;11799;47.740;-3.390;2023-03-04T01:27:03;102609.06;;;4.53;76.27
23261;BME280;11799;47.740;-3.390;2023-03-04T01:29:29;102613.50;;;4.51;76.29
23261;BME280;11799;47.740;-3.390;2023-03-04T01:31:54;102603.88;;;4.52;76.44
23261;BME280;11799;47.740;-3.390;2023-03-04T01:34:20;102612.69;;;4.48;76.54
23261;BME280;11799;47.740;-3.390;2023-03-04T01:36:45;102608.41;;;4.45;76.51
23261;BME280;11799;47.740;-3.390;2023-03-04T01:39:11;102616.22;;;4.47;76.96
23261;BME280;11799;47.740;-3.390;2023-03-04T01:41:36;102604.84;;;4.48;76.95
23261;BME280;11799;47.740;-3.390;2023-03-04T01:44:02;102613.69;;;4.42;76.61
23261;BME280;11799;47.740;-3.390;2023-03-04T01:46:29;102607.56;;;4.43;76.77
23261;BME280;11799;47.740;-3.390;2023-03-04T01:48:56;102606.69;;;4.44;76.88
23261;BME280;11799;47.740;-3.390;2023-03-04T01:51:23;102605.84;;;4.42;76.63
23261;BME280;11799;47.740;-3.390;2023-03-04T01:53:50;102606.78;;;4.40;77.21
23261;BME280;11799;47.740;-3.390;2023-03-04T01:56:28;102604.22;;;4.38;77.10
23261;BME280;11799;47.740;-3.390;2023-03-04T01:59:22;102608.56;;;4.38;77.08
23261;BME280;11799;47.740;-3.390;2023-03-04T02:01:52;102608.63;;;4.36;77.51
23261;BME280;11799;47.740;-3.390;2023-03-04T02:04:22;102600.81;;;4.35;77.36
23261;BME280;11799;47.740;-3.390;2023-03-04T02:06:49;102590.47;;;4.28;77.57
23261;BME280;11799;47.740;-3.390;2023-03-04T02:09:16;102590.44;;;4.30;77.84
23261;BME280;11799;47.740;-3.390;2023-03-04T02:11:44;102587.03;;;4.26;77.81
23261;BME280;11799;47.740;-3.390;2023-03-04T02:14:11;102587.91;;;4.27;77.74
23261;BME280;11799;47.740;-3.390;2023-03-04T02:16:37;102586.25;;;4.23;77.97
23261;BME280;11799;47.740;-3.390;2023-03-04T02:19:39;102585.44;;;4.21;77.73
23261;BME280;11799;47.740;-3.390;2023-03-04T02:21:57;102581.06;;;4.21;78.09
23261;BME280;11799;47.740;-3.390;2023-03-04T02:24:49;102580.22;;;4.19;77.97
23261;BME280;11799;47.740;-3.390;2023-03-04T02:27:17;102576.75;;;4.19;78.30
23261;BME280;11799;47.740;-3.390;2023-03-04T02:29:42;102575.88;;;4.20;78.14
23261;BME280;11799;47.740;-3.390;2023-03-04T02:32:10;102568.06;;;4.18;78.32
23261;BME280;11799;47.740;-3.390;2023-03-04T02:34:53;102563.72;;;4.17;78.10
23261;BME280;11799;47.740;-3.390;2023-03-04T02:37:19;102572.50;;;4.15;78.11
23261;BME280;11799;47.740;-3.390;2023-03-04T02:39:49;102568.97;;;4.16;78.08
23261;BME280;11799;47.740;-3.390;2023-03-04T02:42:15;102576.78;;;4.17;78.53
23261;BME280;11799;47.740;-3.390;2023-03-04T02:44:43;102566.53;;;4.08;78.08
23261;BME280;11799;47.740;-3.390;2023-03-04T02:47:13;102569.91;;;4.13;78.38
23261;BME280;11799;47.740;-3.390;2023-03-04T02:49:40;102570.91;;;4.08;78.48
23261;BME280;11799;47.740;-3.390;2023-03-04T02:52:16;102567.34;;;4.12;78.27
23261;BME280;11799;47.740;-3.390;2023-03-04T02:54:42;102562.22;;;4.07;78.05
23261;BME280;11799;47.740;-3.390;2023-03-04T02:57:10;102559.63;;;4.06;78.28
23261;BME280;11799;47.740;-3.390;2023-03-04T02:59:40;102564.09;;;4.02;79.10
23261;BME280;11799;47.740;-3.390;2023-03-04T03:05:34;102559.75;;;4.01;78.66
23261;BME280;11799;47.740;-3.390;2023-03-04T03:08:01;102554.53;;;4.01;78.58
23261;BME280;11799;47.740;-3.390;2023-03-04T03:10:27;102563.25;;;4.02;78.99
23261;BME280;11799;47.740;-3.390;2023-03-04T03:12:53;102556.28;;;4.01;78.93
23261;BME280;11799;47.740;-3.390;2023-03-04T03:15:20;102560.66;;;4.00;78.85
23261;BME280;11799;47.740;-3.390;2023-03-04T03:17:46;102563.31;;;3.98;79.21
23261;BME280;11799;47.740;-3.390;2023-03-04T03:20:13;102562.38;;;4.01;79.07
23261;BME280;11799;47.740;-3.390;2023-03-04T03:22:40;102570.25;;;4.00;79.35
23261;BME280;11799;47.740;-3.390;2023-03-04T03:25:09;102555.44;;;4.00;79.72
23261;BME280;11799;47.740;-3.390;2023-03-04T03:27:35;102550.19;;;4.00;80.09
23261;BME280;11799;47.740;-3.390;2023-03-04T03:30:00;102551.91;;;4.01;79.68
23261;BME280;11799;47.740;-3.390;2023-03-04T03:32:26;102552.66;;;4.06;79.82
23261;BME280;11799;47.740;-3.390;2023-03-04T03:34:52;102546.47;;;4.09;80.22
23261;BME280;11799;47.740;-3.390;2023-03-04T03:37:17;102555.25;;;4.06;80.30
23261;BME280;11799;47.740;-3.390;2023-03-04T03:39:43;102547.34;;;4.09;80.30
23261;BME280;11799;47.740;-3.390;2023-03-04T03:42:08;102546.38;;;4.13;80.85
23261;BME280;11799;47.740;-3.390;2023-03-04T03:44:34;102551.53;;;4.16;80.54
23261;BME280;11799;47.740;-3.390;2023-03-04T03:46:59;102557.59;;;4.18;80.66
23261;BME280;11799;47.740;-3.390;2023-03-04T03:49:25;102544.63;;;4.14;80.70
23261;BME280;11799;47.740;-3.390;2023-03-04T03:51:51;102547.13;;;4.18;80.54
23261;BME280;11799;47.740;-3.390;2023-03-04T03:54:16;102554.91;;;4.21;80.61
23261;BME280;11799;47.740;-3.390;2023-03-04T03:56:42;102551.34;;;4.24;80.62
23261;BME280;11799;47.740;-3.390;2023-03-04T03:59:07;102560.94;;;4.25;80.96
23261;BME280;11799;47.740;-3.390;2023-03-04T04:01:33;102546.91;;;4.27;80.31
23261;BME280;11799;47.740;-3.390;2023-03-04T04:03:59;102552.09;;;4.29;80.46
23261;BME280;11799;47.740;-3.390;2023-03-04T04:06:25;102559.06;;;4.30;80.79
23261;BME280;11799;47.740;-3.390;2023-03-04T04:08:51;102550.31;;;4.31;80.44
23261;BME280;11799;47.740;-3.390;2023-03-04T04:11:17;102554.66;;;4.32;80.72
23261;BME280;11799;47.740;-3.390;2023-03-04T04:13:42;102558.13;;;4.32;80.62
23261;BME280;11799;47.740;-3.390;2023-03-04T04:16:09;102559.81;;;4.35;80.86
23261;BME280;11799;47.740;-3.390;2023-03-04T04:18:34;102558.03;;;4.37;80.46
23261;BME280;11799;47.740;-3.390;2023-03-04T04:21:00;102552.81;;;4.36;80.84
23261;BME280;11799;47.740;-3.390;2023-03-04T04:23:26;102556.19;;;4.41;80.53
23261;BME280;11799;47.740;-3.390;2023-03-04T04:25:54;102566.66;;;4.41;80.11
23261;BME280;11799;47.740;-3.390;2023-03-04T04:28:20;102561.38;;;4.42;80.45
23261;BME280;11799;47.740;-3.390;2023-03-04T04:30:45;102569.19;;;4.44;80.47
23261;BME280;11799;47.740;-3.390;2023-03-04T04:33:11;102563.97;;;4.44;80.03
23261;BME280;11799;47.740;-3.390;2023-03-04T04:35:37;102570.00;;;4.46;79.99
23261;BME280;11799;47.740;-3.390;2023-03-04T04:38:06;102570.84;;;4.48;80.07
23261;BME280;11799;47.740;-3.390;2023-03-04T04:40:32;102566.56;;;4.44;80.26
23261;BME280;11799;47.740;-3.390;2023-03-04T04:42:58;102576.22;;;4.42;80.14
23261;BME280;11799;47.740;-3.390;2023-03-04T04:45:23;102575.34;;;4.41;79.83
23261;BME280;11799;47.740;-3.390;2023-03-04T04:47:50;102576.22;;;4.42;80.08
23261;BME280;11799;47.740;-3.390;2023-03-04T04:50:16;102575.31;;;4.43;80.12
23261;BME280;11799;47.740;-3.390;2023-03-04T04:52:41;102586.66;;;4.43;80.10
23261;BME280;11799;47.740;-3.390;2023-03-04T04:55:07;102591.88;;;4.43;80.20
23261;BME280;11799;47.740;-3.390;2023-03-04T04:57:33;102588.31;;;4.46;80.01
23261;BME280;11799;47.740;-3.390;2023-03-04T04:59:59;102587.50;;;4.44;79.95
23261;BME280;11799;47.740;-3.390;2023-03-04T05:02:24;102589.22;;;4.45;80.07
23261;BME280;11799;47.740;-3.390;2023-03-04T05:04:50;102586.69;;;4.42;79.81
23261;BME280;11799;47.740;-3.390;2023-03-04T05:07:15;102590.19;;;4.41;79.99
23261;BME280;11799;47.740;-3.390;2023-03-04T05:09:41;102592.78;;;4.42;79.99
23261;BME280;11799;47.740;-3.390;2023-03-04T05:12:06;102591.91;;;4.42;79.94
23261;BME280;11799;47.740;-3.390;2023-03-04T05:14:32;102588.44;;;4.41;80.08
23261;BME280;11799;47.740;-3.390;2023-03-04T05:16:58;102584.09;;;4.40;79.89
23261;BME280;11799;47.740;-3.390;2023-03-04T05:19:23;102586.69;;;4.42;80.17
23261;BME280;11799;47.740;-3.390;2023-03-04T05:21:49;102593.66;;;4.41;79.96
23261;BME280;11799;47.740;-3.390;2023-03-04T05:24:15;102591.06;;;4.41;79.99
23261;BME280;11799;47.740;-3.390;2023-03-04T05:26:40;102590.22;;;4.39;79.98
23261;BME280;11799;47.740;-3.390;2023-03-04T05:29:06;102600.75;;;4.36;79.98
23261;BME280;11799;47.740;-3.390;2023-03-04T05:31:31;102602.44;;;4.39;79.91
23261;BME280;11799;47.740;-3.390;2023-03-04T05:33:57;102603.34;;;4.38;79.99
23261;BME280;11799;47.740;-3.390;2023-03-04T05:36:22;102606.88;;;4.35;80.45
23261;BME280;11799;47.740;-3.390;2023-03-04T05:38:48;102600.72;;;4.38;80.23
23261;BME280;11799;47.740;-3.390;2023-03-04T05:41:14;102603.38;;;4.36;79.93
23261;BME280;11799;47.740;-3.390;2023-03-04T05:43:40;102605.22;;;4.32;80.17
23261;BME280;11799;47.740;-3.390;2023-03-04T05:46:07;102611.25;;;4.35;79.92
23261;BME280;11799;47.740;-3.390;2023-03-04T05:48:33;102603.41;;;4.35;80.27
23261;BME280;11799;47.740;-3.390;2023-03-04T05:51:00;102617.38;;;4.34;79.97
23261;BME280;11799;47.740;-3.390;2023-03-04T05:53:26;102607.00;;;4.30;79.80
23261;BME280;11799;47.740;-3.390;2023-03-04T05:55:52;102609.50;;;4.35;80.24
23261;BME280;11799;47.740;-3.390;2023-03-04T05:58:19;102607.88;;;4.29;79.83
23261;BME280;11799;47.740;-3.390;2023-03-04T06:00:44;102608.78;;;4.28;79.72
23261;BME280;11799;47.740;-3.390;2023-03-04T06:03:18;102617.53;;;4.27;79.52
23261;BME280;11799;47.740;-3.390;2023-03-04T06:05:44;102620.19;;;4.26;79.96
23261;BME280;11799;47.740;-3.390;2023-03-04T06:08:11;102619.28;;;4.27;79.98
23261;BME280;11799;47.740;-3.390;2023-03-04T06:10:38;102622.00;;;4.22;80.13
23261;BME280;11799;47.740;-3.390;2023-03-04T06:13:05;102621.19;;;4.20;79.88
23261;BME280;11799;47.740;-3.390;2023-03-04T06:15:30;102621.22;;;4.19;79.87
23261;BME280;11799;47.740;-3.390;2023-03-04T06:17:56;102623.84;;;4.17;79.85
23261;BME280;11799;47.740;-3.390;2023-03-04T06:20:22;102625.66;;;4.15;80.33
23261;BME280;11799;47.740;-3.390;2023-03-04T06:22:48;102623.94;;;4.14;79.73
23261;BME280;11799;47.740;-3.390;2023-03-04T06:25:13;102630.03;;;4.13;79.87
23261;BME280;11799;47.740;-3.390;2023-03-04T06:27:39;102629.22;;;4.11;79.47
23261;BME280;11799;47.740;-3.390;2023-03-04T06:30:05;102634.53;;;4.08;79.65
23261;BME280;11799;47.740;-3.390;2023-03-04T06:32:31;102637.19;;;4.05;80.25
23261;BME280;11799;47.740;-3.390;2023-03-04T06:34:56;102642.50;;;4.04;80.53
23261;BME280;11799;47.740;-3.390;2023-03-04T06:37:22;102636.44;;;4.02;80.29
23261;BME280;11799;47.740;-3.390;2023-03-04T06:39:48;102643.41;;;4.01;80.23
23261;BME280;11799;47.740;-3.390;2023-03-04T06:42:13;102644.28;;;4.02;80.15
23261;BME280;11799;47.740;-3.390;2023-03-04T06:44:39;102643.41;;;4.01;80.05
23261;BME280;11799;47.740;-3.390;2023-03-04T06:47:04;102657.44;;;3.97;80.05
23261;BME280;11799;47.740;-3.390;2023-03-04T06:49:30;102650.50;;;3.96;79.94
23261;BME280;11799;47.740;-3.390;2023-03-04T06:51:55;102651.44;;;3.92;80.32
23261;BME280;11799;47.740;-3.390;2023-03-04T06:54:21;102657.50;;;3.94;80.66
23261;BME280;11799;47.740;-3.390;2023-03-04T06:56:47;102655.78;;;3.93;80.50
23261;BME280;11799;47.740;-3.390;2023-03-04T06:59:12;102659.25;;;3.93;80.35
23261;BME280;11799;47.740;-3.390;2023-03-04T07:01:38;102661.00;;;3.93;80.40
23261;BME280;11799;47.740;-3.390;2023-03-04T07:04:03;102665.38;;;3.92;80.27
23261;BME280;11799;47.740;-3.390;2023-03-04T07:06:29;102666.34;;;3.88;80.13
23261;BME280;11799;47.740;-3.390;2023-03-04T07:08:55;102665.41;;;3.91;80.62
23261;BME280;11799;47.740;-3.390;2023-03-04T07:11:21;102666.28;;;3.91;80.14
23261;BME280;11799;47.740;-3.390;2023-03-04T07:13:47;102665.53;;;3.85;80.72
23261;BME280;11799;47.740;-3.390;2023-03-04T07:16:19;102671.59;;;3.87;81.00
23261;BME280;11799;47.740;-3.390;2023-03-04T07:18:45;102672.38;;;3.92;80.89
23261;BME280;11799;47.740;-3.390;2023-03-04T07:21:12;102666.28;;;3.91;80.89
23261;BME280;11799;47.740;-3.390;2023-03-04T07:23:38;102671.44;;;3.94;81.01
23261;BME280;11799;47.740;-3.390;2023-03-04T07:26:04;102669.72;;;3.93;80.72
23261;BME280;11799;47.740;-3.390;2023-03-04T07:28:30;102670.59;;;3.94;80.55
23261;BME280;11799;47.740;-3.390;2023-03-04T07:30:55;102672.31;;;3.95;81.06
23261;BME280;11799;47.740;-3.390;2023-03-04T07:33:21;102676.66;;;3.94;80.97
23261;BME280;11799;47.740;-3.390;2023-03-04T07:35:47;102681.00;;;3.95;80.90
23261;BME280;11799;47.740;-3.390;2023-03-04T07:38:12;102679.22;;;3.97;80.80
23261;BME280;11799;47.740;-3.390;2023-03-04T07:40:38;102673.97;;;3.99;81.08
23261;BME280;11799;47.740;-3.390;2023-03-04T07:43:04;102685.22;;;4.03;80.87
23261;BME280;11799;47.740;-3.390;2023-03-04T07:45:29;102682.59;;;4.03;80.50
23261;BME280;11799;47.740;-3.390;2023-03-04T07:47:56;102687.84;;;4.01;80.45
23261;BME280;11799;47.740;-3.390;2023-03-04T07:50:22;102689.56;;;4.04;80.92
23261;BME280;11799;47.740;-3.390;2023-03-04T07:52:48;102688.53;;;4.09;80.78
23261;BME280;11799;47.740;-3.390;2023-03-04T07:55:15;102686.75;;;4.11;80.17
23261;BME280;11799;47.740;-3.390;2023-03-04T07:57:42;102691.00;;;4.17;80.04
23261;BME280;11799;47.740;-3.390;2023-03-04T08:00:10;102698.88;;;4.15;79.48
23261;BME280;11799;47.740;-3.390;2023-03-04T08:02:39;102690.84;;;4.23;79.53
23261;BME280;11799;47.740;-3.390;2023-03-04T08:05:05;102699.44;;;4.29;79.08
23261;BME280;11799;47.740;-3.390;2023-03-04T08:07:31;102709.22;;;4.60;78.99
23261;BME280;11799;47.740;-3.390;2023-03-04T08:09:57;102696.16;;;5.28;77.30
23261;BME280;11799;47.740;-3.390;2023-03-04T08:12:23;102702.34;;;5.90;74.57
23261;BME280;11799;47.740;-3.390;2023-03-04T08:14:49;102696.41;;;6.71;71.21
23261;BME280;11799;47.740;-3.390;2023-03-04T08:17:15;102694.34;;;7.33;69.19
23261;BME280;11799;47.740;-3.390;2023-03-04T08:19:41;102684.97;;;7.74;65.61
23261;BME280;11799;47.740;-3.390;2023-03-04T08:22:07;102687.13;;;8.10;62.97
23261;BME280;11799;47.740;-3.390;2023-03-04T08:24:32;102697.69;;;8.33;62.79
23261;BME280;11799;47.740;-3.390;2023-03-04T08:26:58;102699.47;;;8.31;62.85
23261;BME280;11799;47.740;-3.390;2023-03-04T08:29:24;102702.75;;;8.14;62.74
23261;BME280;11799;47.740;-3.390;2023-03-04T08:31:51;102703.63;;;7.91;62.17
23261;BME280;11799;47.740;-3.390;2023-03-04T08:34:19;102700.53;;;7.80;63.39
23261;BME280;11799;47.740;-3.390;2023-03-04T08:36:45;102700.47;;;7.82;63.49
23261;BME280;11799;47.740;-3.390;2023-03-04T08:39:12;102709.56;;;7.97;64.52
23261;BME280;11799;47.740;-3.390;2023-03-04T08:41:39;102704.31;;;7.97;63.87
23261;BME280;11799;47.740;-3.390;2023-03-04T08:44:04;102700.47;;;7.82;63.03
23261;BME280;11799;47.740;-3.390;2023-03-04T08:46:32;102705.16;;;7.74;63.82
23261;BME280;11799;47.740;-3.390;2023-03-04T08:48:58;102704.97;;;7.78;64.82
23261;BME280;11799;47.740;-3.390;2023-03-04T08:51:23;102708.47;;;7.79;65.65
23261;BME280;11799;47.740;-3.390;2023-03-04T08:53:50;102715.03;;;7.67;63.77
23261;BME280;11799;47.740;-3.390;2023-03-04T08:56:16;102708.97;;;7.65;63.64
23261;BME280;11799;47.740;-3.390;2023-03-04T08:58:41;102717.00;;;7.60;64.17
23261;BME280;11799;47.740;-3.390;2023-03-04T09:01:09;102715.56;;;7.52;64.68
23261;BME280;11799;47.740;-3.390;2023-03-04T09:03:35;102721.06;;;7.46;64.07
23261;BME280;11799;47.740;-3.390;2023-03-04T09:06:02;102721.00;;;7.47;64.77
23261;BME280;11799;47.740;-3.390;2023-03-04T09:08:28;102717.63;;;7.44;63.24
23261;BME280;11799;47.740;-3.390;2023-03-04T09:10:54;102722.31;;;7.59;63.27
23261;BME280;11799;47.740;-3.390;2023-03-04T09:13:23;102718.13;;;7.53;63.12
23261;BME280;11799;47.740;-3.390;2023-03-04T09:15:50;102721.63;;;7.54;62.89
23261;BME280;11799;47.740;-3.390;2023-03-04T09:18:17;102721.34;;;7.61;62.94
23261;BME280;11799;47.740;-3.390;2023-03-04T09:20:44;102715.06;;;7.66;62.36
23261;BME280;11799;47.740;-3.390;2023-03-04T09:23:10;102711.47;;;7.68;62.68
23261;BME280;11799;47.740;-3.390;2023-03-04T09:25:37;102711.63;;;7.63;61.94
23261;BME280;11799;47.740;-3.390;2023-03-04T09:28:04;102712.50;;;7.64;62.22
23261;BME280;11799;47.740;-3.390;2023-03-04T09:30:30;102708.09;;;7.65;61.75
23261;BME280;11799;47.740;-3.390;2023-03-04T09:32:55;102706.22;;;7.68;63.00
23261;BME280;11799;47.740;-3.390;2023-03-04T09:35:21;102709.53;;;7.73;62.94
23261;BME280;11799;47.740;-3.390;2023-03-04T09:37:47;102704.97;;;7.78;63.55
23261;BME280;11799;47.740;-3.390;2023-03-04T09:40:49;102707.50;;;7.81;62.42
23261;BME280;11799;47.740;-3.390;2023-03-04T09:43:34;102710.28;;;7.77;60.93
23261;BME280;11799;47.740;-3.390;2023-03-04T09:46:07;102710.75;;;7.88;61.70
23261;BME280;11799;47.740;-3.390;2023-03-04T09:48:50;102712.53;;;7.87;60.78
23261;BME280;11799;47.740;-3.390;2023-03-04T09:57:17;102707.91;;;7.94;59.97
23261;BME280;11799;47.740;-3.390;2023-03-04T09:59:52;102707.91;;;7.94;59.77
23261;BME280;11799;47.740;-3.390;2023-03-04T10:05:12;102703.59;;;8.15;61.48
23261;BME280;11799;47.740;-3.390;2023-03-04T10:07:42;102699.25;;;8.14;60.33
23261;BME280;11799;47.740;-3.390;2023-03-04T10:10:16;102697.13;;;8.02;57.97
23261;BME280;11799;47.740;-3.390;2023-03-04T10:12:45;102702.19;;;8.06;58.71
23261;BME280;11799;47.740;-3.390;2023-03-04T10:15:17;102699.31;;;8.12;59.09
23261;BME280;11799;47.740;-3.390;2023-03-04T10:17:47;102699.75;;;8.23;61.04
23261;BME280;11799;47.740;-3.390;2023-03-04T10:20:23;102706.63;;;8.27;59.68
23261;BME280;11799;47.740;-3.390;2023-03-04T10:23:14;102708.34;;;8.28;58.45
23261;BME280;11799;47.740;-3.390;2023-03-04T10:25:44;102710.19;;;8.26;57.73
23261;BME280;11799;47.740;-3.390;2023-03-04T10:28:17;102706.81;;;8.23;58.19
23261;BME280;11799;47.740;-3.390;2023-03-04T10:33:41;102706.97;;;8.18;57.37
23261;BME280;11799;47.740;-3.390;2023-03-04T10:39:40;102708.94;;;8.37;58.01
23261;BME280;11799;47.740;-3.390;2023-03-04T10:41:54;102697.25;;;8.44;57.50
23261;BME280;11799;47.740;-3.390;2023-03-04T10:44:22;102688.81;;;8.57;57.13
23261;BME280;11799;47.740;-3.390;2023-03-04T10:46:48;102693.63;;;8.68;56.17
23261;BME280;11799;47.740;-3.390;2023-03-04T10:49:17;102682.66;;;8.79;56.44
23261;BME280;11799;47.740;-3.390;2023-03-04T10:51:48;102681.66;;;9.03;56.21
23261;BME280;11799;47.740;-3.390;2023-03-04T10:54:41;102674.84;;;9.19;54.84
23261;BME280;11799;47.740;-3.390;2023-03-04T10:59:45;102676.72;;;9.36;51.88
23261;BME280;11799;47.740;-3.390;2023-03-04T11:02:31;102668.94;;;9.33;52.73
23261;BME280;11799;47.740;-3.390;2023-03-04T11:10:38;102673.75;;;9.64;52.07
23261;BME280;11799;47.740;-3.390;2023-03-04T11:18:23;102666.63;;;9.46;52.92
23261;BME280;11799;47.740;-3.390;2023-03-04T11:20:53;102662.09;;;9.49;52.04
23261;BME280;11799;47.740;-3.390;2023-03-04T11:26:14;102663.22;;;9.44;52.13
23261;BME280;11799;47.740;-3.390;2023-03-04T11:40:53;102651.53;;;9.29;52.13
23261;BME280;11799;47.740;-3.390;2023-03-04T11:43:37;102657.53;;;9.33;52.10
23261;BME280;11799;47.740;-3.390;2023-03-04T11:49:28;102644.16;;;9.37;52.40
23261;BME280;11799;47.740;-3.390;2023-03-04T11:57:22;102643.56;;;9.51;51.21
23261;BME280;11799;47.740;-3.390;2023-03-04T12:29:28;102613.56;;;10.10;49.96
23261;BME280;11799;47.740;-3.390;2023-03-04T12:54:45;102591.22;;;10.36;47.65
23261;BME280;11799;47.740;-3.390;2023-03-04T12:57:18;102588.44;;;10.39;47.96
23261;BME280;11799;47.740;-3.390;2023-03-04T12:59:57;102583.38;;;10.34;47.43
23261;BME280;11799;47.740;-3.390;2023-03-04T13:06:09;102579.69;;;10.19;48.89
23261;BME280;11799;47.740;-3.390;2023-03-04T13:11:49;102569.53;;;10.10;47.74
23261;BME280;11799;47.740;-3.390;2023-03-04T13:16:38;102558.63;;;10.18;48.50
23261;BME280;11799;47.740;-3.390;2023-03-04T13:43:49;102530.63;;;10.33;47.92
23261;BME280;11799;47.740;-3.390;2023-03-04T14:01:35;102508.13;;;10.07;47.97
23261;BME280;11799;47.740;-3.390;2023-03-04T14:06:44;102500.00;;;9.92;48.80
23261;BME280;11799;47.740;-3.390;2023-03-04T14:09:35;102503.50;;;9.93;48.43
23261;BME280;11799;47.740;-3.390;2023-03-04T14:12:03;102494.81;;;9.91;48.86
23261;BME280;11799;47.740;-3.390;2023-03-04T14:14:42;102496.28;;;9.97;48.57
23261;BME280;11799;47.740;-3.390;2023-03-04T14:17:18;102493.81;;;9.93;49.21
23261;BME280;11799;47.740;-3.390;2023-03-04T14:19:46;102497.94;;;9.99;48.39
23261;BME280;11799;47.740;-3.390;2023-03-04T14:22:37;102492.81;;;9.96;48.21
23261;BME280;11799;47.740;-3.390;2023-03-04T14:25:05;102493.88;;;9.92;48.13
23261;BME280;11799;47.740;-3.390;2023-03-04T14:27:34;102488.53;;;9.93;48.00
23261;BME280;11799;47.740;-3.390;2023-03-04T14:30:07;102492.03;;;9.94;48.71
23261;BME280;11799;47.740;-3.390;2023-03-04T14:32:43;102482.25;;;9.96;48.39
23261;BME280;11799;47.740;-3.390;2023-03-04T14:35:29;102477.75;;;9.98;48.06
23261;BME280;11799;47.740;-3.390;2023-03-04T14:40:52;102472.78;;;9.92;48.61
23261;BME280;11799;47.740;-3.390;2023-03-04T14:43:20;102467.56;;;9.90;48.68
23261;BME280;11799;47.740;-3.390;2023-03-04T14:45:52;102462.34;;;9.89;48.70
23261;BME280;11799;47.740;-3.390;2023-03-04T14:48:44;102463.38;;;9.86;48.84
23261;BME280;11799;47.740;-3.390;2023-03-04T14:53:57;102462.19;;;9.75;50.03
23261;BME280;11799;47.740;-3.390;2023-03-04T14:56:33;102455.69;;;9.82;49.47
23261;BME280;11799;47.740;-3.390;2023-03-04T14:58:59;102452.97;;;9.83;49.74
23261;BME280;11799;47.740;-3.390;2023-03-04T15:01:35;102458.84;;;9.71;49.16
23261;BME280;11799;47.740;-3.390;2023-03-04T15:04:10;102444.09;;;9.67;49.10
23261;BME280;11799;47.740;-3.390;2023-03-04T15:06:38;102439.41;;;9.55;49.02
23261;BME280;11799;47.740;-3.390;2023-03-04T15:09:25;102432.66;;;9.49;49.70
23261;BME280;11799;47.740;-3.390;2023-03-04T15:12:00;102434.34;;;9.50;50.87
23261;BME280;11799;47.740;-3.390;2023-03-04T15:25:12;102421.09;;;9.33;51.33
23261;BME280;11799;47.740;-3.390;2023-03-04T15:27:40;102421.19;;;9.32;50.66
23261;BME280;11799;47.740;-3.390;2023-03-04T15:30:12;102417.75;;;9.30;51.40
23261;BME280;11799;47.740;-3.390;2023-03-04T15:32:39;102411.84;;;9.24;50.94
23261;BME280;11799;47.740;-3.390;2023-03-04T15:35:05;102422.31;;;9.26;52.22
23261;BME280;11799;47.740;-3.390;2023-03-04T15:37:31;102422.38;;;9.24;51.51
23261;BME280;11799;47.740;-3.390;2023-03-04T15:39:57;102416.66;;;9.16;51.22
23261;BME280;11799;47.740;-3.390;2023-03-04T15:42:23;102419.50;;;9.12;50.92
23261;BME280;11799;47.740;-3.390;2023-03-04T15:44:49;102435.38;;;9.10;50.50
23261;BME280;11799;47.740;-3.390;2023-03-04T15:47:15;102426.69;;;9.08;51.11
23261;BME280;11799;47.740;-3.390;2023-03-04T15:49:42;102424.34;;;9.02;51.31
23261;BME280;11799;47.740;-3.390;2023-03-04T15:52:34;102416.78;;;8.94;51.69